createdAt,value
2023-05-03T00:03:06.979Z,14.73
2023-05-03T00:06:19.925Z,11.82
2023-05-03T00:09:34.329Z,13.77
2023-05-03T00:12:46.938Z,11.70
2023-05-03T00:15:59.495Z,13.18
2023-05-03T00:19:24.212Z,12.07
2023-05-03T00:22:40.653Z,12.32
2023-05-03T00:25:54.423Z,14.73
2023-05-03T00:29:06.785Z,11.02
2023-05-03T00:32:26.178Z,12.70
2023-05-03T00:35:38.595Z,10.57
2023-05-03T00:38:51.336Z,10.90
2023-05-03T00:42:04.357Z,12.20
2023-05-03T00:45:17.332Z,12.52
2023-05-03T00:48:30.474Z,11.12
2023-05-03T00:51:43.150Z,11.75
2023-05-03T00:54:57.530Z,11.60
2023-05-03T00:58:10.839Z,9.70
2023-05-03T01:01:23.355Z,10.68
2023-05-03T01:04:37.277Z,10.95
2023-05-03T01:07:52.242Z,11.57
2023-05-03T01:11:08.801Z,12.45
2023-05-03T01:14:32.882Z,11.70
2023-05-03T01:17:51.298Z,12.73
2023-05-03T01:21:05.286Z,11.20
2023-05-03T01:24:19.477Z,12.93
2023-05-03T01:27:32.503Z,10.85
2023-05-03T01:30:45.171Z,10.85
2023-05-03T01:34:26.048Z,10.25
2023-05-03T01:37:38.744Z,11.63
2023-05-03T01:40:56.011Z,13.85
2023-05-03T01:44:09.745Z,10.23
2023-05-03T01:47:23.118Z,13.65
2023-05-03T01:50:35.845Z,11.45
2023-05-03T01:53:49.248Z,13.82
2023-05-03T01:57:03.106Z,12.80
2023-05-03T02:00:16.352Z,12.93
2023-05-03T02:03:29.895Z,14.18
2023-05-03T02:06:42.298Z,14.23
2023-05-03T02:09:55.030Z,13.10
2023-05-03T02:13:07.367Z,12.13
2023-05-03T02:16:20.183Z,13.90
2023-05-03T02:19:32.809Z,13.43
2023-05-03T02:22:45.752Z,16.17
2023-05-03T02:25:58.396Z,13.52
2023-05-03T02:29:10.850Z,14.35
2023-05-03T02:32:24.040Z,11.02
2023-05-03T02:35:36.502Z,13.85
2023-05-03T02:38:49.202Z,11.38
2023-05-03T02:42:02.560Z,11.50
2023-05-03T02:45:15.417Z,15.88
2023-05-03T02:48:27.791Z,14.50
2023-05-03T02:51:40.739Z,16.30
2023-05-03T02:54:53.144Z,11.12
2023-05-03T02:58:06.007Z,12.18
2023-05-03T03:01:18.384Z,11.35
2023-05-03T03:04:31.700Z,14.43
2023-05-03T03:07:44.303Z,12.93
2023-05-03T03:10:57.049Z,12.20
2023-05-03T03:14:09.494Z,13.52
2023-05-03T03:17:22.821Z,11.32
2023-05-03T03:20:35.362Z,12.70
2023-05-03T03:23:48.435Z,13.00
2023-05-03T03:27:01.044Z,11.93
2023-05-03T03:30:14.337Z,12.30
2023-05-03T03:33:27.315Z,12.32
2023-05-03T03:36:40.374Z,10.68
2023-05-03T03:39:54.021Z,13.68
2023-05-03T03:43:07.278Z,10.52
2023-05-03T03:46:21.230Z,12.85
2023-05-03T03:49:34.764Z,15.05
2023-05-03T03:52:47.176Z,11.57
2023-05-03T03:56:01.001Z,11.07
2023-05-03T03:59:14.486Z,11.68
2023-05-03T04:02:28.479Z,9.75
2023-05-03T04:05:41.358Z,11.40
2023-05-03T04:08:54.798Z,8.73
2023-05-03T04:12:08.064Z,11.50
2023-05-03T04:15:20.863Z,12.15
2023-05-03T04:18:33.721Z,11.02
2023-05-03T04:21:46.340Z,14.00
2023-05-03T04:25:01.251Z,11.27
2023-05-03T04:28:15.379Z,11.57
2023-05-03T04:31:28.603Z,10.13
2023-05-03T04:34:42.438Z,11.15
2023-05-03T04:37:55.189Z,10.20
2023-05-03T04:41:07.845Z,9.90
2023-05-03T04:44:22.428Z,11.40
2023-05-03T04:47:35.801Z,10.20
2023-05-03T04:50:48.614Z,9.65
2023-05-03T04:54:02.082Z,13.38
2023-05-03T04:57:14.983Z,11.60
2023-05-03T05:00:27.601Z,11.07
2023-05-03T05:03:40.768Z,10.25
2023-05-03T05:06:54.616Z,11.65
2023-05-03T05:10:09.563Z,12.32
2023-05-03T05:13:22.132Z,10.15
2023-05-03T05:16:35.006Z,13.73
2023-05-03T05:19:47.963Z,14.87
2023-05-03T05:23:00.955Z,11.77
2023-05-03T05:26:14.667Z,11.07
2023-05-03T05:29:28.072Z,14.13
2023-05-03T05:32:40.674Z,9.80
2023-05-03T05:35:54.508Z,10.07
2023-05-03T05:39:07.690Z,10.80
2023-05-03T05:42:20.925Z,9.95
2023-05-03T05:45:34.544Z,10.00
2023-05-03T05:48:47.551Z,12.50
2023-05-03T05:52:00.648Z,9.95
2023-05-03T05:55:14.841Z,14.25
2023-05-03T05:58:27.737Z,12.90
2023-05-03T06:01:44.651Z,11.80
2023-05-03T06:05:01.683Z,8.52
2023-05-03T06:08:14.214Z,11.73
2023-05-03T06:11:26.871Z,10.45
2023-05-03T06:14:46.216Z,8.50
2023-05-03T06:18:04.701Z,11.45
2023-05-03T06:21:17.254Z,10.32
2023-05-03T06:24:32.762Z,9.45
2023-05-03T06:27:45.345Z,11.65
2023-05-03T06:30:58.370Z,10.07
2023-05-03T06:34:12.841Z,11.20
2023-05-03T06:37:26.621Z,9.23
2023-05-03T06:40:41.365Z,12.32
2023-05-03T06:43:54.035Z,12.02
2023-05-03T06:47:07.487Z,11.73
2023-05-03T06:50:22.349Z,10.55
2023-05-03T06:53:34.725Z,12.13
2023-05-03T06:56:47.376Z,11.25
2023-05-03T06:59:59.691Z,11.55
2023-05-03T07:03:12.476Z,10.93
2023-05-03T07:06:25.034Z,9.90
2023-05-03T07:09:43.178Z,10.65
2023-05-03T07:12:56.671Z,11.20
2023-05-03T07:16:09.363Z,10.55
2023-05-03T07:19:21.836Z,11.43
2023-05-03T07:22:34.467Z,10.07
2023-05-03T07:25:47.236Z,11.05
2023-05-03T07:28:59.887Z,8.90
2023-05-03T07:32:12.431Z,15.93
2023-05-03T07:35:27.741Z,10.48
2023-05-03T07:38:40.142Z,11.40
2023-05-03T07:41:53.357Z,10.43
2023-05-03T07:45:06.570Z,10.68
2023-05-03T07:48:19.274Z,8.93
2023-05-03T07:51:38.636Z,13.05
2023-05-03T07:54:51.484Z,15.73
2023-05-03T07:58:04.782Z,8.68
2023-05-03T08:01:17.880Z,19.00
2023-05-03T08:04:30.826Z,11.65
2023-05-03T08:07:43.332Z,11.95
2023-05-03T08:10:56.318Z,9.73
2023-05-03T08:14:09.936Z,9.75
2023-05-03T08:17:23.296Z,10.85
2023-05-03T08:20:36.997Z,8.20
2023-05-03T08:23:49.897Z,10.18
2023-05-03T08:27:02.905Z,8.98
2023-05-03T08:30:15.748Z,6.65
2023-05-03T08:33:28.094Z,7.43
2023-05-03T08:36:40.870Z,7.93
2023-05-03T08:39:53.282Z,8.73
2023-05-03T08:43:12.082Z,9.90
2023-05-03T08:46:28.328Z,7.35
2023-05-03T08:49:41.281Z,10.50
2023-05-03T08:52:54.608Z,9.68
2023-05-03T08:56:12.527Z,12.35
2023-05-03T08:59:26.191Z,9.80
2023-05-03T09:02:40.033Z,8.52
2023-05-03T09:05:52.854Z,7.28
2023-05-03T09:09:07.983Z,8.68
2023-05-03T09:12:36.793Z,7.10
2023-05-03T09:15:57.090Z,7.12
2023-05-03T09:19:11.932Z,7.87
2023-05-03T09:22:27.176Z,6.50
2023-05-03T09:25:46.513Z,6.90
2023-05-03T09:29:03.044Z,4.87
2023-05-03T09:32:15.813Z,7.12
2023-05-03T09:35:29.062Z,6.35
2023-05-03T09:38:41.523Z,5.95
2023-05-03T09:41:54.381Z,6.12
2023-05-03T09:45:08.003Z,9.75
2023-05-03T09:48:23.687Z,6.43
2023-05-03T09:51:36.184Z,9.13
2023-05-03T09:54:48.868Z,8.57
2023-05-03T09:58:09.107Z,7.75
2023-05-03T10:01:24.599Z,9.45
2023-05-03T10:04:44.468Z,6.75
2023-05-03T10:07:56.938Z,7.20
2023-05-03T10:11:09.964Z,8.27
2023-05-03T10:14:22.416Z,8.25
2023-05-03T10:17:47.833Z,5.78
2023-05-03T10:21:04.711Z,8.50
2023-05-03T10:24:17.226Z,6.93
2023-05-03T10:27:44.888Z,6.78
2023-05-03T10:30:57.771Z,6.12
2023-05-03T10:34:20.961Z,7.10
2023-05-03T10:37:34.730Z,13.43
2023-05-03T10:40:47.455Z,6.82
2023-05-03T10:43:59.850Z,8.80
2023-05-03T10:47:26.645Z,6.70
2023-05-03T10:50:39.641Z,7.05
2023-05-03T10:53:52.390Z,8.02
2023-05-03T10:57:04.812Z,7.28
2023-05-03T11:00:18.715Z,11.77
2023-05-03T11:03:35.721Z,9.13
2023-05-03T11:06:52.046Z,15.80
2023-05-03T11:10:24.827Z,8.93
2023-05-03T11:13:37.552Z,7.15
2023-05-03T11:16:51.904Z,6.93
2023-05-03T11:20:08.785Z,7.25
2023-05-03T11:23:28.860Z,10.25
2023-05-03T11:26:41.517Z,6.68
2023-05-03T11:29:58.357Z,7.05
2023-05-03T11:33:11.445Z,9.18
2023-05-03T11:36:23.856Z,7.10
2023-05-03T11:39:37.194Z,7.65
2023-05-03T11:42:54.239Z,6.53
2023-05-03T11:46:07.011Z,7.25
2023-05-03T11:49:20.179Z,7.32
2023-05-03T11:52:33.105Z,7.95
2023-05-03T11:55:48.038Z,6.18
2023-05-03T11:59:00.924Z,9.77
2023-05-03T12:02:14.480Z,10.15
2023-05-03T12:05:27.522Z,11.80
2023-05-03T12:08:43.233Z,8.85
2023-05-03T12:15:13.593Z,6.50
2023-05-03T12:18:28.920Z,7.20
2023-05-03T12:21:54.306Z,7.43
2023-05-03T12:25:12.929Z,6.37
2023-05-03T12:28:27.694Z,7.72
2023-05-03T12:31:43.766Z,7.03
2023-05-03T12:34:57.359Z,5.95
2023-05-03T12:38:10.693Z,7.10
2023-05-03T12:44:43.299Z,9.57
2023-05-03T12:47:56.140Z,8.32
2023-05-03T12:51:19.151Z,5.45
2023-05-03T12:54:34.401Z,7.82
2023-05-03T12:57:59.570Z,9.18
2023-05-03T13:04:56.707Z,8.73
2023-05-03T13:08:10.162Z,8.38
2023-05-03T13:11:25.581Z,10.93
2023-05-03T13:14:38.821Z,7.87
2023-05-03T13:17:52.534Z,8.10
2023-05-03T13:21:06.530Z,9.13
2023-05-03T13:24:19.292Z,9.10
2023-05-03T13:27:32.005Z,9.85
2023-05-03T13:30:44.644Z,9.18
2023-05-03T13:33:57.361Z,9.55
2023-05-03T13:37:11.546Z,8.68
2023-05-03T13:40:24.756Z,8.90
2023-05-03T13:43:37.452Z,7.62
2023-05-03T13:46:49.814Z,9.00
2023-05-03T13:50:02.703Z,10.95
2023-05-03T13:53:15.477Z,9.23
2023-05-03T13:56:28.420Z,8.93
2023-05-03T13:59:41.534Z,11.48
2023-05-03T14:02:55.669Z,9.05
2023-05-03T14:06:08.989Z,7.87
2023-05-03T14:09:21.440Z,8.30
2023-05-03T14:12:36.673Z,9.05
2023-05-03T14:15:49.222Z,10.35
2023-05-03T14:19:02.065Z,9.77
2023-05-03T14:22:14.421Z,10.98
2023-05-03T14:25:28.006Z,9.77
2023-05-03T14:28:40.601Z,8.63
2023-05-03T14:31:54.767Z,10.90
2023-05-03T14:35:07.644Z,8.70
2023-05-03T14:38:20.444Z,9.48
2023-05-03T14:41:34.172Z,8.93
2023-05-03T14:44:46.859Z,9.23
2023-05-03T14:47:59.225Z,8.05
2023-05-03T14:51:11.976Z,8.88
2023-05-03T14:54:24.382Z,9.48
2023-05-03T14:57:38.191Z,11.25
2023-05-03T15:00:50.597Z,8.98
2023-05-03T15:04:04.308Z,9.52
2023-05-03T15:07:16.637Z,10.40
2023-05-03T15:10:29.357Z,8.75
2023-05-03T15:13:41.733Z,8.93
2023-05-03T15:16:54.469Z,9.48
2023-05-03T15:20:07.967Z,8.45
2023-05-03T15:23:20.614Z,7.70
2023-05-03T15:26:32.930Z,7.78
2023-05-03T15:29:46.260Z,7.47
2023-05-03T15:32:58.641Z,9.32
2023-05-03T15:36:12.058Z,7.68
2023-05-03T15:39:24.635Z,8.25
2023-05-03T15:42:37.746Z,8.77
2023-05-03T15:45:50.148Z,10.00
2023-05-03T15:49:02.833Z,11.43
2023-05-03T15:52:15.198Z,7.75
2023-05-03T15:55:27.855Z,8.45
2023-05-03T15:58:40.744Z,9.30
2023-05-03T16:01:53.909Z,10.90
2023-05-03T16:05:06.792Z,7.37
2023-05-03T16:08:20.275Z,7.93
2023-05-03T16:11:32.936Z,6.53
2023-05-03T16:14:45.388Z,8.77
2023-05-03T16:17:58.181Z,9.00
2023-05-03T16:21:11.424Z,7.90
2023-05-03T16:24:24.307Z,6.65
2023-05-03T16:27:37.691Z,7.12
2023-05-03T16:30:50.371Z,6.30
2023-05-03T16:34:02.824Z,6.53
2023-05-03T16:37:15.514Z,7.97
2023-05-03T16:40:27.888Z,6.80
2023-05-03T16:43:40.559Z,7.40
2023-05-03T16:46:53.343Z,8.20
2023-05-03T16:50:08.039Z,7.07
2023-05-03T16:53:20.834Z,9.18
2023-05-03T16:56:33.771Z,11.12
2023-05-03T16:59:46.098Z,7.93
2023-05-03T17:02:58.845Z,10.18
2023-05-03T17:06:12.683Z,8.45
2023-05-03T17:09:25.340Z,8.02
2023-05-03T17:12:37.949Z,7.87
2023-05-03T17:15:50.663Z,8.48
2023-05-03T17:19:02.996Z,8.43
2023-05-03T17:22:15.814Z,11.00
2023-05-03T17:25:28.180Z,7.87
2023-05-03T17:28:40.786Z,9.23
2023-05-03T17:31:53.183Z,11.38
2023-05-03T17:35:06.845Z,8.57
2023-05-03T17:38:19.202Z,13.07
2023-05-03T17:41:31.925Z,13.07
2023-05-03T17:44:44.264Z,9.68
2023-05-03T17:47:56.948Z,8.88
2023-05-03T17:51:10.617Z,9.85
2023-05-03T17:54:23.756Z,10.18
2023-05-03T17:57:37.450Z,8.05
2023-05-03T18:00:50.271Z,8.77
2023-05-03T18:04:03.207Z,9.90
2023-05-03T18:07:15.777Z,9.32
2023-05-03T18:10:28.412Z,9.00
2023-05-03T18:13:41.366Z,9.05
2023-05-03T18:16:55.203Z,8.00
2023-05-03T18:20:09.690Z,8.63
2023-05-03T18:23:22.441Z,8.80
2023-05-03T18:26:34.812Z,8.27
2023-05-03T18:29:47.461Z,10.20
2023-05-03T18:33:00.377Z,9.50
2023-05-03T18:36:13.883Z,10.70
2023-05-03T18:39:26.197Z,9.80
2023-05-03T18:42:38.808Z,9.90
2023-05-03T18:45:51.953Z,10.73
2023-05-03T18:49:04.980Z,10.95
2023-05-03T18:52:17.375Z,11.50
2023-05-03T18:55:30.026Z,11.25
2023-05-03T18:58:42.377Z,10.60
2023-05-03T19:01:55.073Z,12.57
2023-05-03T19:05:08.242Z,11.80
2023-05-03T19:08:20.855Z,11.52
2023-05-03T19:11:33.410Z,11.80
2023-05-03T19:14:46.869Z,12.30
2023-05-03T19:17:59.337Z,11.38
2023-05-03T19:21:12.468Z,11.85
2023-05-03T19:24:24.830Z,11.43
2023-05-03T19:27:37.656Z,10.93
2023-05-03T19:30:53.107Z,10.88
2023-05-03T19:34:07.989Z,9.57
2023-05-03T19:37:20.487Z,13.43
2023-05-03T19:40:33.660Z,11.48
2023-05-03T19:43:46.292Z,12.82
2023-05-03T19:46:59.032Z,10.32
2023-05-03T19:50:12.121Z,13.02
2023-05-03T19:53:25.501Z,11.15
2023-05-03T19:56:37.838Z,8.98
2023-05-03T19:59:50.925Z,11.25
2023-05-03T20:03:03.333Z,10.50
2023-05-03T20:06:16.074Z,10.18
2023-05-03T20:09:28.414Z,9.35
2023-05-03T20:12:41.064Z,10.52
2023-05-03T20:15:53.849Z,10.15
2023-05-03T20:19:06.549Z,9.52
2023-05-03T20:22:18.854Z,12.90
2023-05-03T20:25:31.937Z,14.52
2023-05-03T20:28:44.395Z,12.90
2023-05-03T20:31:57.056Z,15.38
2023-05-03T20:35:13.175Z,13.02
2023-05-03T20:38:25.841Z,13.25
2023-05-03T20:41:38.233Z,10.43
2023-05-03T20:44:51.650Z,9.85
2023-05-03T20:48:04.219Z,10.68
2023-05-03T20:51:16.957Z,13.65
2023-05-03T20:54:29.295Z,9.88
2023-05-03T20:57:42.008Z,12.32
2023-05-03T21:00:56.958Z,11.43
2023-05-03T21:04:10.417Z,13.65
2023-05-03T21:07:22.760Z,18.40
2023-05-03T21:10:35.413Z,21.90
2023-05-03T21:13:47.771Z,14.48
2023-05-03T21:17:01.473Z,11.65
2023-05-03T21:20:14.149Z,13.23
2023-05-03T21:23:26.805Z,15.35
2023-05-03T21:26:39.216Z,12.75
2023-05-03T21:29:51.863Z,13.13
2023-05-03T21:33:04.645Z,10.68
2023-05-03T21:36:17.750Z,10.70
2023-05-03T21:39:30.132Z,11.10
2023-05-03T21:42:43.149Z,13.45
2023-05-03T21:45:56.826Z,12.07
2023-05-03T21:49:09.739Z,11.90
2023-05-03T21:52:22.581Z,12.50
2023-05-03T21:55:35.486Z,12.30
2023-05-03T21:58:48.142Z,14.48
2023-05-03T22:02:01.172Z,11.85
2023-05-03T22:05:14.263Z,12.37
2023-05-03T22:08:26.590Z,11.12
2023-05-03T22:11:39.256Z,12.25
2023-05-03T22:14:51.653Z,13.95
2023-05-03T22:18:05.048Z,13.07
2023-05-03T22:21:17.516Z,11.25
2023-05-03T22:24:30.374Z,9.85
2023-05-03T22:27:42.745Z,11.30
2023-05-03T22:30:55.358Z,12.20
2023-05-03T22:34:07.679Z,11.60
2023-05-03T22:37:20.330Z,13.68
2023-05-03T22:40:33.202Z,11.23
2023-05-03T22:43:45.899Z,14.05
2023-05-03T22:46:58.476Z,13.35
2023-05-03T22:50:11.392Z,13.25
2023-05-03T22:53:23.765Z,11.27
2023-05-03T22:56:36.372Z,13.48
2023-05-03T22:59:48.691Z,14.32
2023-05-03T23:03:01.540Z,13.57
2023-05-03T23:06:15.087Z,12.43
2023-05-03T23:09:27.753Z,14.30
2023-05-03T23:12:40.172Z,14.87
2023-05-03T23:15:54.479Z,14.43
2023-05-03T23:19:06.883Z,14.82
2023-05-03T23:22:19.527Z,14.90
2023-05-03T23:25:31.852Z,14.35
2023-05-03T23:28:44.503Z,14.90
2023-05-03T23:31:57.396Z,12.07
2023-05-03T23:35:10.602Z,15.18
2023-05-03T23:38:22.977Z,13.15
2023-05-03T23:41:36.324Z,13.25
2023-05-03T23:44:55.485Z,11.05
2023-05-03T23:48:08.711Z,11.30
2023-05-03T23:51:21.087Z,9.65
2023-05-03T23:54:33.789Z,10.82
2023-05-03T23:57:46.418Z,10.55
